Map

Track Data

SID SEASON NUMBER BASIN SUBBASIN NAME ISO_TIME NATURE LAT LON WMO_WIND WMO_PRES WMO_AGENCY TRACK_TYPE DIST2LAND LANDFALL IFLAG USA_AGENCY USA_ATCF_ID USA_LAT USA_LON USA_RECORD USA_STATUS USA_WIND USA_PRES USA_SSHS USA_R34_NE USA_R34_SE USA_R34_SW USA_R34_NW USA_R50_NE USA_R50_SE USA_R50_SW USA_R50_NW USA_R64_NE USA_R64_SE USA_R64_SW USA_R64_NW USA_POCI USA_ROCI USA_RMW USA_EYE TOKYO_LAT TOKYO_LON TOKYO_GRADE TOKYO_WIND TOKYO_PRES TOKYO_R50_DIR TOKYO_R50_LONG TOKYO_R50_SHORT TOKYO_R30_DIR TOKYO_R30_LONG TOKYO_R30_SHORT TOKYO_LAND CMA_LAT CMA_LON CMA_CAT CMA_WIND CMA_PRES HKO_LAT HKO_LON HKO_CAT HKO_WIND HKO_PRES NEWDELHI_LAT NEWDELHI_LON NEWDELHI_GRADE NEWDELHI_WIND NEWDELHI_PRES NEWDELHI_CI NEWDELHI_DP NEWDELHI_POCI REUNION_LAT REUNION_LON REUNION_TYPE REUNION_WIND REUNION_PRES REUNION_TNUM REUNION_CI REUNION_RMW REUNION_R34_NE REUNION_R34_SE REUNION_R34_SW REUNION_R34_NW REUNION_R50_NE REUNION_R50_SE REUNION_R50_SW REUNION_R50_NW REUNION_R64_NE REUNION_R64_SE REUNION_R64_SW REUNION_R64_NW BOM_LAT BOM_LON BOM_TYPE BOM_WIND BOM_PRES BOM_TNUM BOM_CI BOM_RMW BOM_R34_NE BOM_R34_SE BOM_R34_SW BOM_R34_NW BOM_R50_NE BOM_R50_SE BOM_R50_SW BOM_R50_NW BOM_R64_NE BOM_R64_SE BOM_R64_SW BOM_R64_NW BOM_ROCI BOM_POCI BOM_EYE BOM_POS_METHOD BOM_PRES_METHOD NADI_LAT NADI_LON NADI_CAT NADI_WIND NADI_PRES WELLINGTON_LAT WELLINGTON_LON WELLINGTON_WIND WELLINGTON_PRES DS824_LAT DS824_LON DS824_STAGE DS824_WIND DS824_PRES TD9636_LAT TD9636_LON TD9636_STAGE TD9636_WIND TD9636_PRES TD9635_LAT TD9635_LON TD9635_WIND TD9635_PRES TD9635_ROCI NEUMANN_LAT NEUMANN_LON NEUMANN_CLASS NEUMANN_WIND NEUMANN_PRES MLC_LAT MLC_LON MLC_CLASS MLC_WIND MLC_PRES USA_GUST BOM_GUST BOM_GUST_PER REUNION_GUST REUNION_GUST_PER USA_SEAHGT USA_SEARAD_NE USA_SEARAD_SE USA_SEARAD_SW USA_SEARAD_NW STORM_SPEED STORM_DIR
1912259N10145 1912 47 WP MM NOT_NAMED 1912-09-15 09:00:00 NR 10.3000 145.200 main 1398 1398 __________O___ -1 10.3000 145.200 4 7 283
1912259N10145 1912 47 WP MM NOT_NAMED 1912-09-15 12:00:00 NR 10.3752 144.870 main 1413 1413 __________P___ -1 10.3752 144.870 4 7 283
1912259N10145 1912 47 WP MM NOT_NAMED 1912-09-15 15:00:00 NR 10.4502 144.533 main 1430 1430 __________P___ -1 10.4502 144.533 4 7 282
1912259N10145 1912 47 WP MM NOT_NAMED 1912-09-15 18:00:00 NR 10.5251 144.179 main 1436 1436 __________P___ -1 10.5251 144.179 4 7 282
1912259N10145 1912 47 WP MM NOT_NAMED 1912-09-15 21:00:00 NR 10.6000 143.800 main 1456 1456 __________O___ -1 10.6000 143.800 4 8 281
1912259N10145 1912 47 WP MM NOT_NAMED 1912-09-16 00:00:00 NR 10.6749 143.391 main 1477 1477 __________P___ -1 10.6749 143.391 4 8 280
1912259N10145 1912 47 WP MM NOT_NAMED 1912-09-16 03:00:00 NR 10.7498 142.952 main 1477 1468 __________P___ -1 10.7498 142.952 4 9 280
1912259N10145 1912 47 WP MM NOT_NAMED 1912-09-16 06:00:00 NR 10.8248 142.488 main 1468 1462 __________P___ -1 10.8248 142.488 4 9 279
1912259N10145 1912 47 WP MM NOT_NAMED 1912-09-16 09:00:00 NR 10.9000 142.000 main 1462 1453 __________O___ -1 10.9000 142.000 4 10 278
1912259N10145 1912 47 WP MM NOT_NAMED 1912-09-16 12:00:00 NR 10.9665 141.517 main 1458 1437 __________P___ -1 10.9665 141.517 4 10 278
1912259N10145 1912 47 WP MM NOT_NAMED 1912-09-16 15:00:00 NR 11.0344 141.010 main 1437 1427 __________P___ -1 11.0344 141.010 4 10 278
1912259N10145 1912 47 WP MM NOT_NAMED 1912-09-16 18:00:00 NR 11.1102 140.473 main 1427 1415 __________P___ -1 11.1102 140.473 4 11 279
1912259N10145 1912 47 WP MM NOT_NAMED 1912-09-16 21:00:00 NR 11.2000 139.900 main 1415 1404 __________O___ -1 11.2000 139.900 4 12 279
1912259N10145 1912 47 WP MM NOT_NAMED 1912-09-17 00:00:00 NR 11.3067 139.274 main 1405 1389 __________P___ -1 11.3067 139.274 4 13 280
1912259N10145 1912 47 WP MM NOT_NAMED 1912-09-17 03:00:00 NR 11.4277 138.615 main 1378 1316 __________P___ -1 11.4277 138.615 4 13 281
1912259N10145 1912 47 WP MM NOT_NAMED 1912-09-17 06:00:00 NR 11.5598 137.949 main 1308 1246 __________P___ -1 11.5598 137.949 4 13 282
1912259N10145 1912 47 WP MM NOT_NAMED 1912-09-17 09:00:00 NR 11.7000 137.300 main 1246 1185 __________O___ -1 11.7000 137.300 4 12 283
1912259N10145 1912 47 WP MM NOT_NAMED 1912-09-17 12:00:00 NR 11.8341 136.707 main 1185 1137 __________P___ -1 11.8341 136.707 4 12 284
1912259N10145 1912 47 WP MM NOT_NAMED 1912-09-17 15:00:00 NR 11.9767 136.135 main 1127 1075 __________P___ -1 11.9767 136.135 4 12 285
1912259N10145 1912 47 WP MM NOT_NAMED 1912-09-17 18:00:00 NR 12.1310 135.570 main 1075 1013 __________P___ -1 12.1310 135.570 4 12 286
1912259N10145 1912 47 WP MM NOT_NAMED 1912-09-17 21:00:00 NR 12.3000 135.000 main 1013 951 __________O___ -1 12.3000 135.000 4 12 287
1912259N10145 1912 47 WP MM NOT_NAMED 1912-09-18 00:00:00 NR 12.4731 134.411 main 951 891 __________P___ -1 12.4731 134.411 4 12 287
1912259N10145 1912 47 WP MM NOT_NAMED 1912-09-18 03:00:00 NR 12.6620 133.814 main 891 833 __________P___ -1 12.6620 133.814 4 12 289
1912259N10145 1912 47 WP MM NOT_NAMED 1912-09-18 06:00:00 NR 12.8699 133.211 main 833 776 __________P___ -1 12.8699 133.211 4 13 290
1912259N10145 1912 47 WP MM NOT_NAMED 1912-09-18 09:00:00 NR 13.1000 132.600 main 776 716 __________O___ -1 13.1000 132.600 4 13 291
1912259N10145 1912 47 WP MM NOT_NAMED 1912-09-18 12:00:00 NR 13.3290 131.966 main 716 656 __________P___ -1 13.3290 131.966 4 13 291
1912259N10145 1912 47 WP MM NOT_NAMED 1912-09-18 15:00:00 NR 13.5824 131.327 main 648 594 __________P___ -1 13.5824 131.327 4 13 294
1912259N10145 1912 47 WP MM NOT_NAMED 1912-09-18 18:00:00 NR 13.8697 130.700 main 594 546 __________P___ -1 13.8697 130.700 4 13 297
1912259N10145 1912 47 WP MM NOT_NAMED 1912-09-18 21:00:00 NR 14.2000 130.100 main 546 513 __________O___ -1 14.2000 130.100 4 13 302
1912259N10145 1912 47 WP MM NOT_NAMED 1912-09-19 00:00:00 NR 14.5649 129.550 main 509 492 __________P___ -1 14.5649 129.550 4 13 307
1912259N10145 1912 47 WP MM NOT_NAMED 1912-09-19 03:00:00 NR 14.9741 129.026 main 491 472 __________P___ -1 14.9741 129.026 4 13 311
1912259N10145 1912 47 WP MM NOT_NAMED 1912-09-19 06:00:00 NR 15.4212 128.515 main 472 447 __________P___ -1 15.4212 128.515 4 14 313
1912259N10145 1912 47 WP MM NOT_NAMED 1912-09-19 09:00:00 NR 15.9000 128.000 main 447 419 __________O___ -1 15.9000 128.000 4 14 310
1912259N10145 1912 47 WP MM NOT_NAMED 1912-09-19 12:00:00 NR 16.3158 127.396 main 419 404 __________P___ -1 16.3158 127.396 4 15 307
1912259N10145 1912 47 WP MM NOT_NAMED 1912-09-19 15:00:00 NR 16.7713 126.795 main 412 404 __________P___ -1 16.7713 126.795 4 15 312
1912259N10145 1912 47 WP MM NOT_NAMED 1912-09-19 18:00:00 NR 17.3160 126.246 main 394 364 __________P___ -1 17.3160 126.246 4 16 322
1912259N10145 1912 47 WP MM NOT_NAMED 1912-09-19 21:00:00 NR 18.0000 125.800 main 367 329 __________O___ -1 18.0000 125.800 4 18 334
1912259N10145 1912 47 WP MM NOT_NAMED 1912-09-20 00:00:00 NR 18.9288 125.403 main 331 324 __________P___ -1 18.9288 125.403 4 21 342
1912259N10145 1912 47 WP MM NOT_NAMED 1912-09-20 03:00:00 NR 19.9882 125.126 main 344 344 __________P___ -1 19.9882 125.126 4 22 350
1912259N10145 1912 47 WP MM NOT_NAMED 1912-09-20 06:00:00 NR 21.0786 125.010 main 413 397 __________P___ -1 21.0786 125.010 4 21 360
1912259N10145 1912 47 WP MM NOT_NAMED 1912-09-20 09:00:00 NR 22.1000 125.100 main 395 389 __________O___ -1 22.1000 125.100 4 20 12
1912259N10145 1912 47 WP MM NOT_NAMED 1912-09-20 12:00:00 NR 22.9733 125.460 main 402 398 __________P___ -1 22.9733 125.460 4 19 27
1912259N10145 1912 47 WP MM NOT_NAMED 1912-09-20 15:00:00 NR 23.7545 126.019 main 423 423 __________P___ -1 23.7545 126.019 4 18 37
1912259N10145 1912 47 WP MM NOT_NAMED 1912-09-20 18:00:00 NR 24.4332 126.670 main 479 477 __________P___ -1 24.4332 126.670 4 17 43
1912259N10145 1912 47 WP MM NOT_NAMED 1912-09-20 21:00:00 NR 25.0000 127.300 main 533 533 __________O___ -1 25.0000 127.300 4 14 44
1912259N10145 1912 47 WP MM NOT_NAMED 1912-09-21 00:00:00 NR 25.4652 127.774 main 585 585 __________P___ -1 25.4652 127.774 4 12 45
1912259N10145 1912 47 WP MM NOT_NAMED 1912-09-21 03:00:00 NR 25.8267 128.201 main 628 584 __________P___ -1 25.8267 128.201 4 10 48
1912259N10145 1912 47 WP MM NOT_NAMED 1912-09-21 06:00:00 NR 26.1249 128.576 main 584 542 __________P___ -1 26.1249 128.576 4 9 48
1912259N10145 1912 47 WP MM NOT_NAMED 1912-09-21 09:00:00 NR 26.4000 128.900 main 542 515 __________O___ -1 26.4000 128.900 4 7 44
1912259N10145 1912 47 WP MM NOT_NAMED 1912-09-21 12:00:00 NR 26.5903 129.086 main 515 490 __________P___ -1 26.5903 129.086 4 5 38
1912259N10145 1912 47 WP MM NOT_NAMED 1912-09-21 15:00:00 NR 26.7865 129.236 main 490 453 __________P___ -1 26.7865 129.236 4 6 33
1912259N10145 1912 47 WP MM NOT_NAMED 1912-09-21 18:00:00 NR 27.0895 129.442 main 453 389 __________P___ -1 27.0895 129.442 4 10 32
1912259N10145 1912 47 WP MM NOT_NAMED 1912-09-21 21:00:00 NR 27.6000 129.800 main 389 291 __________O___ -1 27.6000 129.800 4 16 34
1912259N10145 1912 47 WP MM NOT_NAMED 1912-09-22 00:00:00 NR 28.4052 130.456 main 290 184 __________P___ -1 28.4052 130.456 4 22 36
1912259N10145 1912 47 WP MM NOT_NAMED 1912-09-22 03:00:00 NR 29.4201 131.280 main 187 120 __________P___ -1 29.4201 131.280 4 26 35
1912259N10145 1912 47 WP MM NOT_NAMED 1912-09-22 06:00:00 NR 30.5743 132.190 main 117 108 __________P___ -1 30.5743 132.190 4 29 33
1912259N10145 1912 47 WP MM NOT_NAMED 1912-09-22 09:00:00 NR 31.8000 133.100 main 100 50 __________O___ -1 31.8000 133.100 4 28 30
1912259N10145 1912 47 WP MM NOT_NAMED 1912-09-22 12:00:00 NR 32.9797 133.834 main 43 0 __________P___ -1 32.9797 133.834 4 27 27
1912259N10145 1912 47 WP MM NOT_NAMED 1912-09-22 15:00:00 NR 34.2180 134.559 main 11 0 __________P___ -1 34.2180 134.559 4 28 26
1912259N10145 1912 47 WP MM NOT_NAMED 1912-09-22 18:00:00 NR 35.4976 135.329 main 0 0 __________P___ -1 35.4976 135.329 4 29 27
1912259N10145 1912 47 WP MM NOT_NAMED 1912-09-22 21:00:00 NR 36.8000 136.200 main 41 11 __________O___ -1 36.8000 136.200 4 30 31
1912259N10145 1912 47 WP MM NOT_NAMED 1912-09-23 00:00:00 NR 38.1063 137.259 main 78 78 __________P___ -1 38.1063 137.259 4 32 34
1912259N10145 1912 47 WP MM NOT_NAMED 1912-09-23 03:00:00 NR 39.4229 138.439 main 124 25 __________P___ -1 39.4229 138.439 4 32 36
1912259N10145 1912 47 WP MM NOT_NAMED 1912-09-23 06:00:00 NR 40.7276 139.701 main 20 0 __________P___ -1 40.7276 139.701 4 32 37
1912259N10145 1912 47 WP MM NOT_NAMED 1912-09-23 09:00:00 NR 42.0000 141.000 main 8 0 __________O___ -1 42.0000 141.000 4 33 37
1912259N10145 1912 47 WP MM NOT_NAMED 1912-09-23 12:00:00 NR 43.3387 142.370 main 0 0 __________P___ -1 43.3387 142.370 4 33 37
1912259N10145 1912 47 WP MM NOT_NAMED 1912-09-23 15:00:00 NR 44.6242 143.766 main 40 40 __________P___ -1 44.6242 143.766 4 31 39
1912259N10145 1912 47 WP MM NOT_NAMED 1912-09-23 18:00:00 NR 45.7718 145.107 main 130 130 __________P___ -1 45.7718 145.107 4 27 40
1912259N10145 1912 47 WP MM NOT_NAMED 1912-09-23 21:00:00 NR 46.7000 146.300 main 198 193 __________O___ -1 46.7000 146.300 4 21 44
1912259N10145 1912 47 WP MM NOT_NAMED 1912-09-24 00:00:00 NR 47.3092 147.250 main 226 226 __________P___ -1 47.3092 147.250 4 15 49
1912259N10145 1912 47 WP MM NOT_NAMED 1912-09-24 03:00:00 NR 47.7135 148.006 main 242 237 __________P___ -1 47.7135 148.006 4 12 53
1912259N10145 1912 47 WP MM NOT_NAMED 1912-09-24 06:00:00 NR 48.0117 148.632 main 243 239 __________P___ -1 48.0117 148.632 4 10 54
1912259N10145 1912 47 WP MM NOT_NAMED 1912-09-24 09:00:00 NR 48.3000 149.200 main 255 253 __________O___ -1 48.3000 149.200 4 10 50
1912259N10145 1912 47 WP MM NOT_NAMED 1912-09-24 12:00:00 NR 48.6535 149.773 main 290 289 __________P___ -1 48.6535 149.773 4 11 45
1912259N10145 1912 47 WP MM NOT_NAMED 1912-09-24 15:00:00 NR 49.0693 150.366 main 333 314 __________P___ -1 49.0693 150.366 4 12 42
1912259N10145 1912 47 WP MM NOT_NAMED 1912-09-24 18:00:00 NR 49.5255 150.975 main 307 256 __________P___ -1 49.5255 150.975 4 12 41
1912259N10145 1912 47 WP MM NOT_NAMED 1912-09-24 21:00:00 NR 50.0000 151.600 main 256 __________O___ -1 50.0000 151.600 4 12 40

Digital Typhoon Data and Search

About IBTrACS Database

This database is a web-friendly format of International Best Track Archive for Climate Stewardship (IBTrACS), a global best track data archive curated by NOAA dating back to 1842.

Updated: 2021-11-26